Kittitas — WYQ9302 — position and weather

sailwx.info

Track history (hours):
 
Tides and Currents Weather Stations Pressure Air Temp Water Temp Dewpoint Dewpoint Depression Visibility Wind Speed Wind Dir Waves Ship Positions

Kittitas

Owner: WASHINGTON, STATE OF; Dept. of Transportation, OLYMPIA, WA. More information available from US FCC via Universal Licensing System and Coast Guard Vessel Documentation Center.

Last reported at 2015-Mar-30 12:33 UTC. Time now 2015-Mar-30 12:57 UTC.
Position N 47°58' W 122°21'.

Length 100 m; draft 4.7 m.

Type: Passenger vessel. MMSI: 366772960.

Date/timePositionNaut miles runAvg speedWind from/ knotsBaromVisibWave heightAir tempDewpointWater temp
2015-Mar-30 12:33N 47°58' W 122°21'0 1.8
2015-Mar-30 12:26N 47°58' W 122°21'0 0.0
2015-Mar-30 11:31N 47°58' W 122°21'0 0.0
2015-Mar-30 09:20N 47°58' W 122°21'0 0.0
2015-Mar-30 08:55N 47°58' W 122°21'0 0.0
2015-Mar-30 08:30N 47°58' W 122°21'0 0.0
2015-Mar-30 08:22N 47°58' W 122°21'0 0.4
2015-Mar-30 07:33N 47°58' W 122°21'0 0.1
2015-Mar-30 07:11N 47°58' W 122°21'2 4.3
2015-Mar-30 06:44N 47°57' W 122°18'210.4
2015-Mar-30 06:33N 47°58' W 122°21'0 0.2
2015-Mar-30 05:33N 47°58' W 122°20'0 0.1
2015-Mar-30 04:33N 47°58' W 122°20'1 0.6
2015-Mar-30 03:39N 47°58' W 122°20'1 8.9
2015-Mar-30 03:33N 47°58' W 122°21'0 0.7
2015-Mar-30 03:14N 47°58' W 122°21'0 0.2
2015-Mar-30 02:32N 47°58' W 122°21'1 1.8
2015-Mar-30 02:10N 47°58' W 122°20'1 1.0
2015-Mar-30 01:33N 47°58' W 122°21'2 2.9
2015-Mar-30 00:49N 47°57' W 122°18'2 7.2
2015-Mar-30 00:33N 47°58' W 122°20'0 5.7
2015-Mar-30 00:29N 47°58' W 122°21'0 0.3
2015-Mar-29 23:33N 47°58' W 122°21'0 0.1
2015-Mar-29 23:10N 47°58' W 122°21'0 0.1
2015-Mar-29 22:33N 47°58' W 122°21'1 1.5
2015-Mar-29 21:39N 47°58' W 122°19'114.5
2015-Mar-29 21:33N 47°58' W 122°21'0 0.8
2015-Mar-29 21:09N 47°58' W 122°21'0 0.4
2015-Mar-29 20:33N 47°58' W 122°20'1 8.8
2015-Mar-29 20:30N 47°58' W 122°21'1 0.6
2015-Mar-29 19:33N 47°58' W 122°20'1 3.8
2015-Mar-29 19:24N 47°58' W 122°21'0 0.5
2015-Mar-29 18:33N 47°58' W 122°20'0 0.4
2015-Mar-29 18:09N 47°58' W 122°21'0 0.2
2015-Mar-29 17:33N 47°58' W 122°21'0 0.1
2015-Mar-29 16:33N 47°58' W 122°21'0 0.5
2015-Mar-29 16:13N 47°58' W 122°21'0 0.5
2015-Mar-29 15:33N 47°58' W 122°20'0 1.1
2015-Mar-29 15:13N 47°58' W 122°21'0 0.6
2015-Mar-29 14:33N 47°58' W 122°20'0 0.0
2015-Mar-29 13:33N 47°58' W 122°20'0 0.9
2015-Mar-29 13:14N 47°58' W 122°21'0 0.2
2015-Mar-29 12:33N 47°58' W 122°21'0 3.6
2015-Mar-29 12:33N 47°58' W 122°21'0 0.2
2015-Mar-29 11:30N 47°58' W 122°21'0 0.0
2015-Mar-29 10:33N 47°58' W 122°21'0 0.0
2015-Mar-29 09:33N 47°58' W 122°21'0 0.0
2015-Mar-29 09:12N 47°58' W 122°21'0 0.0
2015-Mar-29 08:33N 47°58' W 122°21'1 2.1
2015-Mar-29 08:16N 47°58' W 122°20'0 0.4
2015-Mar-29 07:33N 47°58' W 122°21'0 4.5
2015-Mar-29 07:32N 47°58' W 122°21'0 0.2
2015-Mar-29 06:33N 47°58' W 122°20'0 0.6
2015-Mar-29 06:12N 47°58' W 122°21'212.1
2015-Mar-29 06:02N 47°57' W 122°18'2 4.6
2015-Mar-29 05:33N 47°58' W 122°21'0 0.5
2015-Mar-29 04:33N 47°58' W 122°20'0 0.7
2015-Mar-29 04:12N 47°58' W 122°21'0 0.2
2015-Mar-29 03:33N 47°58' W 122°21'0 8.7
2015-Mar-29 03:31N 47°58' W 122°21'0 0.3
2015-Mar-29 02:33N 47°58' W 122°20'1 1.1
2015-Mar-29 01:41N 47°58' W 122°19'110.1
2015-Mar-29 01:33N 47°58' W 122°21'0 0.6
2015-Mar-29 01:17N 47°58' W 122°21'0 0.2
2015-Mar-29 00:33N 47°58' W 122°21'0 0.5
2015-Mar-29 00:16N 47°58' W 122°21'0 0.2
2015-Mar-28 23:33N 47°58' W 122°21'2 2.3
2015-Mar-28 22:41N 47°57' W 122°19'213.5
2015-Mar-28 22:33N 47°58' W 122°21'0 5.5
2015-Mar-28 22:31N 47°58' W 122°21'0 0.1
2015-Mar-28 21:33N 47°58' W 122°21'0 0.5
2015-Mar-28 21:11N 47°58' W 122°21'0 0.4
2015-Mar-28 20:33N 47°58' W 122°20'1 1.9
2015-Mar-28 20:16N 47°58' W 122°21'0 0.6
2015-Mar-28 19:33N 47°58' W 122°20'0 0.1
2015-Mar-28 18:33N 47°58' W 122°21'0 0.6
2015-Mar-28 18:10N 47°58' W 122°20'0 0.5
2015-Mar-28 17:33N 47°58' W 122°21'0 0.6
2015-Mar-28 17:14N 47°58' W 122°21'0 0.6
2015-Mar-28 16:33N 47°58' W 122°20'0 1.7
2015-Mar-28 16:18N 47°58' W 122°21'0 0.0
2015-Mar-28 15:31N 47°58' W 122°21'2 4.6
2015-Mar-28 15:03N 47°57' W 122°19'2 3.2
2015-Mar-28 14:33N 47°58' W 122°20'015.7
2015-Mar-28 14:32N 47°58' W 122°21'0 0.1
2015-Mar-28 13:33N 47°58' W 122°21'1 2.0
2015-Mar-28 13:05N 47°58' W 122°20'1 1.6
2015-Mar-28 12:32N 47°58' W 122°21'0 8.3
2015-Mar-28 12:30N 47°58' W 122°21'0 0.0
2015-Mar-28 11:33N 47°58' W 122°21'0 0.0
2015-Mar-28 10:35N 47°58' W 122°21'0 0.1
2015-Mar-28 10:32N 47°58' W 122°21'0 0.0
2015-Mar-28 09:59N 47°58' W 122°21'0 0.0
2015-Mar-28 09:30N 47°58' W 122°21'0 0.1
2015-Mar-28 08:16N 47°58' W 122°21'0 3.6
2015-Mar-28 08:15N 47°58' W 122°21'1 0.9
2015-Mar-28 07:34N 47°58' W 122°20'110.5
2015-Mar-28 07:29N 47°58' W 122°21'1 0.7
2015-Mar-28 06:33N 47°58' W 122°20'0 0.7
2015-Mar-28 06:09N 47°58' W 122°21'0 0.3
2015-Mar-28 05:33N 47°58' W 122°20'0 0.1
2015-Mar-28 04:33N 47°58' W 122°20'0 3.9
2015-Mar-28 04:33N 47°58' W 122°20'0 0.0
2015-Mar-28 03:33N 47°58' W 122°20'0 1.0
2015-Mar-28 03:12N 47°58' W 122°21'0 0.4
2015-Mar-28 02:33N 47°58' W 122°21'0 0.0
2015-Mar-28 02:32N 47°58' W 122°21'0 0.3
2015-Mar-28 01:33N 47°58' W 122°21'1 2.5
2015-Mar-28 01:16N 47°58' W 122°20'1 0.9
2015-Mar-28 00:33N 47°58' W 122°21'1 3.2
2015-Mar-28 00:12N 47°57' W 122°20'1 1.6
2015-Mar-27 23:33N 47°58' W 122°21'0 5.4
2015-Mar-27 23:32N 47°58' W 122°21'0 0.1
2015-Mar-27 22:33N 47°58' W 122°21'0 0.2
2015-Mar-27 22:22N 47°58' W 122°21'0 0.6
2015-Mar-27 21:33N 47°58' W 122°20'0 0.1
2015-Mar-27 20:33N 47°58' W 122°20'0 0.0
2015-Mar-27 19:33N 47°58' W 122°21'2 3.4
2015-Mar-27 18:58N 47°57' W 122°18'2 4.6
2015-Mar-27 18:33N 47°58' W 122°20'0 1.5
2015-Mar-27 18:18N 47°58' W 122°21'0 0.6
2015-Mar-27 17:33N 47°58' W 122°20'0 3.4
2015-Mar-27 17:25N 47°58' W 122°21'0 0.2
2015-Mar-27 16:33N 47°58' W 122°21'1 0.8
2015-Mar-27 15:35N 47°58' W 122°20'116.7
2015-Mar-27 15:33N 47°58' W 122°21'0 2.5
2015-Mar-27 15:24N 47°58' W 122°21'0 0.5
2015-Mar-27 14:33N 47°58' W 122°20'0 7.2
2015-Mar-27 14:30N 47°58' W 122°21'0 0.3
2015-Mar-27 13:33N 47°58' W 122°21'0 5.4
2015-Mar-27 13:30N 47°58' W 122°21'0 0.3
2015-Mar-27 12:33N 47°58' W 122°21'0 4.5
2015-Mar-27 12:29N 47°58' W 122°21'0 0.1
2015-Mar-27 11:32N 47°59' W 122°21'0 0.0
2015-Mar-27 11:10N 47°59' W 122°21'0 0.0
2015-Mar-27 10:27N 47°59' W 122°21'0 0.0
2015-Mar-27 10:25N 47°59' W 122°21'0 0.0
2015-Mar-27 09:23N 47°59' W 122°21'0 0.0
2015-Mar-27 09:04N 47°59' W 122°21'0 0.1
2015-Mar-27 08:30N 47°59' W 122°21'0 0.0
2015-Mar-27 08:29N 47°59' W 122°21'0 0.0
2015-Mar-27 07:30N 47°59' W 122°21'0 0.0
2015-Mar-27 07:29N 47°59' W 122°21'0 0.0
2015-Mar-27 06:11N 47°59' W 122°21'0 0.1
2015-Mar-27 05:33N 47°59' W 122°21'0 0.0
2015-Mar-27 04:24N 47°59' W 122°21'2 5.9
2015-Mar-27 03:59N 47°57' W 122°18'2 4.5
2015-Mar-27 03:33N 47°58' W 122°21'2 3.6
2015-Mar-27 02:59N 47°57' W 122°18'2 4.4
2015-Mar-27 02:33N 47°58' W 122°20'0 1.2
2015-Mar-27 02:09N 47°58' W 122°20'1 1.1
2015-Mar-27 01:33N 47°58' W 122°21'2 3.2
2015-Mar-27 00:54N 47°57' W 122°18'2 6.8
2015-Mar-27 00:33N 47°58' W 122°21'2 4.7
2015-Mar-27 00:09N 47°57' W 122°20'2 3.0
2015-Mar-26 23:33N 47°58' W 122°21'0 0.4
2015-Mar-26 23:19N 47°58' W 122°21'0 0.3
2015-Mar-26 22:33N 47°58' W 122°21'0 0.5
2015-Mar-26 22:14N 47°58' W 122°21'0 0.4
2015-Mar-26 21:33N 47°58' W 122°21'1 2.6
2015-Mar-26 21:08N 47°57' W 122°20'1 1.6
2015-Mar-26 20:34N 47°58' W 122°21'0 0.9
2015-Mar-26 20:13N 47°58' W 122°21'0 0.2
2015-Mar-26 19:33N 47°58' W 122°21'1 1.0
2015-Mar-26 18:36N 47°58' W 122°20'114.1
2015-Mar-26 18:33N 47°58' W 122°21'0 0.4
2015-Mar-26 17:32N 47°58' W 122°21'0 0.0
2015-Mar-26 17:23N 47°58' W 122°21'0 0.3
2015-Mar-26 16:32N 47°58' W 122°21'0 0.0
2015-Mar-26 15:32N 47°58' W 122°21'0 6.9
2015-Mar-26 15:31N 47°58' W 122°21'0 0.4
2015-Mar-26 14:34N 47°58' W 122°20'010.0
2015-Mar-26 14:31N 47°58' W 122°21'0 0.4
2015-Mar-26 13:33N 47°58' W 122°20'1 1.4
2015-Mar-26 12:40N 47°58' W 122°19'111.5
2015-Mar-26 12:33N 47°58' W 122°20'0 0.4
2015-Mar-26 11:33N 47°58' W 122°21'0 0.0
2015-Mar-26 10:34N 47°58' W 122°21'0 0.0
2015-Mar-26 09:27N 47°58' W 122°21'0 0.0
2015-Mar-26 08:30N 47°58' W 122°21'0 0.6
2015-Mar-26 08:14N 47°58' W 122°21'0 0.3
2015-Mar-26 07:33N 47°58' W 122°21'0 0.3
2015-Mar-26 07:09N 47°58' W 122°21'0 0.3
2015-Mar-26 06:33N 47°58' W 122°21'1 2.5
2015-Mar-26 06:04N 47°57' W 122°19'1 2.4
2015-Mar-26 05:33N 47°58' W 122°21'0 0.1
2015-Mar-26 04:34N 47°58' W 122°20'0 0.4
2015-Mar-26 03:35N 47°58' W 122°20'011.3
2015-Mar-26 03:33N 47°58' W 122°20'0 0.3
2015-Mar-26 03:09N 47°58' W 122°21'0 0.3
2015-Mar-26 02:33N 47°58' W 122°21'0 0.7
2015-Mar-26 02:14N 47°58' W 122°21'0 0.4
2015-Mar-26 01:33N 47°58' W 122°21'0 0.1
2015-Mar-26 00:33N 47°58' W 122°20'1 1.4
2015-Mar-25 23:39N 47°58' W 122°19'113.2
2015-Mar-25 23:33N 47°58' W 122°20'1 2.7
2015-Mar-25 23:04N 47°57' W 122°19'1 2.9
2015-Mar-25 22:33N 47°58' W 122°21'2 3.9
2015-Mar-25 22:04N 47°57' W 122°19'2 3.9
2015-Mar-25 21:33N 47°58' W 122°21'0 0.3
2015-Mar-25 20:34N 47°58' W 122°20'0 0.2
2015-Mar-25 19:32N 47°58' W 122°21'0 0.2
2015-Mar-25 18:33N 47°58' W 122°20'0 0.0
2015-Mar-25 17:33N 47°58' W 122°21'0 0.2
2015-Mar-25 16:33N 47°58' W 122°20'0 0.1
2015-Mar-25 15:33N 47°58' W 122°20'0 0.2
2015-Mar-25 14:33N 47°58' W 122°21'0 0.1
2015-Mar-25 13:33N 47°58' W 122°21'0 0.2
2015-Mar-25 13:11N 47°58' W 122°21'0 0.2
2015-Mar-25 12:33N 47°58' W 122°21'0 0.5
2015-Mar-25 12:16N 47°58' W 122°21'0 0.5
2015-Mar-25 11:33N 47°59' W 122°21'0 0.0
2015-Mar-25 10:18N 47°59' W 122°21'0 0.0
2015-Mar-25 07:17N 47°59' W 122°21'0 0.0
2015-Mar-25 07:10N 47°59' W 122°21'0 0.0
2015-Mar-25 06:23N 47°59' W 122°21'0 0.0
2015-Mar-25 05:24N 47°59' W 122°21'1 0.8
2015-Mar-25 04:33N 47°59' W 122°20'2 2.2
2015-Mar-25 03:40N 47°57' W 122°19'112.9
2015-Mar-25 03:33N 47°58' W 122°20'0 0.5
2015-Mar-25 02:34N 47°58' W 122°20'018.8
2015-Mar-25 02:33N 47°58' W 122°20'0 0.3
2015-Mar-25 01:33N 47°58' W 122°21'0 1.9
2015-Mar-25 01:25N 47°58' W 122°21'0 0.0
2015-Mar-25 00:33N 47°58' W 122°21'0 0.5
2015-Mar-25 00:15N 47°58' W 122°21'0 0.1
2015-Mar-24 23:33N 47°58' W 122°21'0 0.5
2015-Mar-24 23:15N 47°58' W 122°21'0 0.1
2015-Mar-24 22:34N 47°58' W 122°21'0 0.1
2015-Mar-24 21:33N 47°58' W 122°21'0 0.5
2015-Mar-24 21:09N 47°58' W 122°21'0 0.5
2015-Mar-24 20:33N 47°58' W 122°20'0 0.2
2015-Mar-24 19:35N 47°58' W 122°20'117.0
2015-Mar-24 19:33N 47°58' W 122°21'0 0.5
2015-Mar-24 19:09N 47°58' W 122°21'0 0.2
2015-Mar-24 18:33N 47°58' W 122°21'2 3.4
2015-Mar-24 17:59N 47°57' W 122°18'2 4.0
2015-Mar-24 17:33N 47°58' W 122°20'1 1.7
2015-Mar-24 17:14N 47°58' W 122°21'0 0.6
2015-Mar-24 16:33N 47°58' W 122°20'2 3.2
2015-Mar-24 15:59N 47°57' W 122°18'2 4.8
2015-Mar-24 15:33N 47°58' W 122°21'0 1.5
2015-Mar-24 15:24N 47°58' W 122°21'0 0.5
2015-Mar-24 14:33N 47°58' W 122°20'0 1.0
2015-Mar-24 14:13N 47°58' W 122°21'0 0.1
2015-Mar-24 13:32N 47°58' W 122°21'0 0.4
2015-Mar-24 13:14N 47°58' W 122°21'0 0.6
2015-Mar-24 12:33N 47°58' W 122°21'2 3.2
2015-Mar-24 11:58N 47°57' W 122°18'2 5.7
2015-Mar-24 11:33N 47°59' W 122°21'0 0.0
2015-Mar-24 11:28N 47°59' W 122°21'0 0.0
2015-Mar-24 10:05N 47°59' W 122°21'0 0.0
2015-Mar-24 09:15N 47°59' W 122°21'0 0.0
2015-Mar-24 07:56N 47°59' W 122°21'0 0.0
2015-Mar-24 07:08N 47°59' W 122°21'0 0.0
2015-Mar-24 06:33N 47°59' W 122°21'0 0.0
2015-Mar-24 06:20N 47°59' W 122°21'0 0.0
2015-Mar-24 05:33N 47°59' W 122°21'0 0.0
2015-Mar-24 04:26N 47°59' W 122°21'1 0.8
2015-Mar-24 03:35N 47°58' W 122°20'010.7
2015-Mar-24 03:33N 47°58' W 122°21'1 0.9
2015-Mar-24 02:35N 47°58' W 122°20'116.5
2015-Mar-24 02:33N 47°58' W 122°20'0 0.2
2015-Mar-24 01:33N 47°58' W 122°21'0 0.3
2015-Mar-24 01:11N 47°58' W 122°21'0 0.1
2015-Mar-24 00:33N 47°58' W 122°21'1 1.9
2015-Mar-24 00:06N 47°58' W 122°20'1 1.5
2015-Mar-23 23:33N 47°58' W 122°21'0 2.5
2015-Mar-23 23:25N 47°58' W 122°21'0 0.4
2015-Mar-23 22:33N 47°58' W 122°21'0 0.0
2015-Mar-23 21:33N 47°58' W 122°21'0 0.4
2015-Mar-23 21:10N 47°58' W 122°21'0 0.6
2015-Mar-23 20:33N 47°58' W 122°21'0 0.8
2015-Mar-23 20:09N 47°58' W 122°21'0 0.3
2015-Mar-23 19:33N 47°58' W 122°21'0 0.7
2015-Mar-23 19:14N 47°58' W 122°21'0 0.2
2015-Mar-23 18:33N 47°58' W 122°20'0 0.0
2015-Mar-23 17:34N 47°58' W 122°20'0 0.4
2015-Mar-23 17:09N 47°58' W 122°21'0 0.7
2015-Mar-23 16:33N 47°58' W 122°21'0 0.2
2015-Mar-23 15:34N 47°58' W 122°21'2 1.7
2015-Mar-23 14:38N 47°57' W 122°19'116.8
2015-Mar-23 14:33N 47°58' W 122°21'0 2.1
2015-Mar-23 14:23N 47°58' W 122°21'0 0.6
2015-Mar-23 13:33N 47°58' W 122°20'0 2.0
2015-Mar-23 13:18N 47°58' W 122°21'0 0.5
2015-Mar-23 12:33N 47°58' W 122°21'0 0.2
2015-Mar-23 11:43N 47°58' W 122°20'0 2.9
2015-Mar-23 11:33N 47°58' W 122°21'0 0.0
2015-Mar-23 09:08N 47°58' W 122°21'0 0.0
2015-Mar-23 08:33N 47°58' W 122°21'0 0.4
2015-Mar-23 08:17N 47°58' W 122°21'0 0.6
2015-Mar-23 07:33N 47°58' W 122°20'010.1
2015-Mar-23 07:33N 47°58' W 122°21'0 0.1
2015-Mar-23 06:33N 47°58' W 122°21'2 3.0
2015-Mar-23 05:51N 47°57' W 122°18'2 6.2
2015-Mar-23 05:33N 47°58' W 122°20'0 0.2
2015-Mar-23 04:33N 47°58' W 122°21'2 2.9
2015-Mar-23 03:51N 47°57' W 122°18'2 6.9
2015-Mar-23 03:33N 47°58' W 122°21'0 0.3
2015-Mar-23 03:11N 47°58' W 122°21'0 0.3
2015-Mar-23 02:33N 47°58' W 122°21'1 0.7
2015-Mar-23 01:36N 47°58' W 122°20'112.0
2015-Mar-23 01:33N 47°58' W 122°21'0 0.7
2015-Mar-23 01:16N 47°58' W 122°21'0 0.4
2015-Mar-23 00:33N 47°58' W 122°21'0 7.5
2015-Mar-23 00:31N 47°58' W 122°21'0 0.0
2015-Mar-22 23:32N 47°58' W 122°21'2 2.8
2015-Mar-22 22:45N 47°57' W 122°18'2 8.5
2015-Mar-22 22:33N 47°58' W 122°20'0 0.1
2015-Mar-22 21:33N 47°58' W 122°21'0 0.3
2015-Mar-22 20:33N 47°58' W 122°21'2 4.0
2015-Mar-22 20:10N 47°57' W 122°19'2 2.6
2015-Mar-22 19:33N 47°58' W 122°21'1 5.5
2015-Mar-22 19:21N 47°58' W 122°20'1 1.1
2015-Mar-22 18:33N 47°58' W 122°21'0 0.1
2015-Mar-22 17:33N 47°58' W 122°21'2 3.8
2015-Mar-22 17:00N 47°57' W 122°18'2 4.3
2015-Mar-22 16:33N 47°58' W 122°20'0 0.0
2015-Mar-22 15:33N 47°58' W 122°21'0 0.0
2015-Mar-22 14:33N 47°58' W 122°21'0 0.0
2015-Mar-22 13:33N 47°58' W 122°21'0 0.2
2015-Mar-22 12:33N 47°58' W 122°20'1 0.4
2015-Mar-22 11:07N 47°58' W 122°21'0 0.0
2015-Mar-22 10:59N 47°58' W 122°21'0 0.0
2015-Mar-22 09:33N 47°58' W 122°21'0 0.0
2015-Mar-22 08:32N 47°58' W 122°21'0 0.5
2015-Mar-22 07:33N 47°58' W 122°20'0 0.1
2015-Mar-22 06:33N 47°58' W 122°21'0 0.2
2015-Mar-22 05:32N 47°58' W 122°21'0 0.3
2015-Mar-22 04:33N 47°58' W 122°20'0 0.3
2015-Mar-22 03:33N 47°58' W 122°21'0 0.0
2015-Mar-22 03:33N 47°58' W 122°21'1 1.6
2015-Mar-22 03:13N 47°58' W 122°20'0 0.7
2015-Mar-22 02:33N 47°58' W 122°21'0 0.3
2015-Mar-22 01:33N 47°58' W 122°20'0 0.1
2015-Mar-22 00:33N 47°58' W 122°21'0 0.6
2015-Mar-22 00:12N 47°58' W 122°21'0 0.7
2015-Mar-21 23:33N 47°58' W 122°20'0 1.0
2015-Mar-21 23:12N 47°58' W 122°21'0 0.1
2015-Mar-21 22:33N 47°58' W 122°21'1 1.5
2015-Mar-21 22:11N 47°58' W 122°20'1 0.8
2015-Mar-21 21:33N 47°58' W 122°21'2 3.5
2015-Mar-21 20:56N 47°57' W 122°18'2 5.6
2015-Mar-21 20:33N 47°58' W 122°21'0 0.5
2015-Mar-21 20:11N 47°58' W 122°21'0 0.1
2015-Mar-21 19:33N 47°58' W 122°21'010.2
2015-Mar-21 19:32N 47°58' W 122°21'0 0.1
2015-Mar-21 18:33N 47°58' W 122°21'0 5.8
2015-Mar-21 18:31N 47°58' W 122°21'0 0.0
2015-Mar-21 17:33N 47°58' W 122°21'1 2.2
2015-Mar-21 17:15N 47°58' W 122°20'1 1.0
2015-Mar-21 16:33N 47°58' W 122°21'1 2.1
2015-Mar-21 16:11N 47°58' W 122°20'1 0.9
2015-Mar-21 15:33N 47°58' W 122°21'0 0.0
2015-Mar-21 14:33N 47°58' W 122°21'0 0.4
2015-Mar-21 14:10N 47°58' W 122°21'0 0.2
2015-Mar-21 13:33N 47°58' W 122°21'0 0.3
2015-Mar-21 13:10N 47°58' W 122°21'0 0.7
2015-Mar-21 12:33N 47°58' W 122°20'110.9
2015-Mar-21 12:30N 47°58' W 122°21'0 0.0
2015-Mar-21 11:33N 47°58' W 122°21'0 0.0
2015-Mar-21 10:25N 47°58' W 122°21'0 0.0
2015-Mar-21 09:33N 47°58' W 122°21'0 0.0
2015-Mar-21 08:33N 47°58' W 122°21'0 1.2
2015-Mar-21 08:13N 47°58' W 122°21'0 0.4
2015-Mar-21 07:33N 47°58' W 122°20'013.2
2015-Mar-21 07:32N 47°58' W 122°20'0 0.1
2015-Mar-21 06:33N 47°58' W 122°20'0 0.3
2015-Mar-21 05:33N 47°58' W 122°21'0 0.2
2015-Mar-21 04:33N 47°58' W 122°20'012.9
2015-Mar-21 04:31N 47°58' W 122°21'0 0.3
2015-Mar-21 03:33N 47°58' W 122°20'0 0.2
2015-Mar-21 02:33N 47°58' W 122°21'0 0.1
2015-Mar-21 01:33N 47°58' W 122°21'0 0.3
2015-Mar-21 00:33N 47°58' W 122°21'1 1.0
2015-Mar-20 23:40N 47°58' W 122°20'1 7.1
2015-Mar-20 23:33N 47°58' W 122°21'0 0.5
2015-Mar-20 22:33N 47°58' W 122°20'0 0.4
2015-Mar-20 21:33N 47°58' W 122°21'0 0.4
2015-Mar-20 20:34N 47°58' W 122°20'014.0
2015-Mar-20 20:33N 47°58' W 122°21'0 0.1
2015-Mar-20 19:33N 47°58' W 122°21'1 2.6
2015-Mar-20 19:09N 47°57' W 122°20'1 1.4
2015-Mar-20 18:33N 47°58' W 122°20'1 1.8
2015-Mar-20 18:09N 47°57' W 122°20'1 1.6
2015-Mar-20 17:33N 47°58' W 122°21'0 0.2
2015-Mar-20 16:32N 47°58' W 122°21'0 0.5
2015-Mar-20 15:33N 47°58' W 122°20'0 0.3
2015-Mar-20 14:33N 47°58' W 122°21'0 0.2
2015-Mar-20 13:34N 47°58' W 122°20'014.9
2015-Mar-20 13:34N 47°58' W 122°21'0 0.1
2015-Mar-20 12:33N 47°58' W 122°21'  
Track history (hours):
 
Tides and Currents Weather Stations Pressure Air Temp Water Temp Dewpoint Dewpoint Depression Visibility Wind Speed Wind Dir Waves Ship Positions

Kittitas

Owner: WASHINGTON, STATE OF; Dept. of Transportation, OLYMPIA, WA. More information available from US FCC via Universal Licensing System and Coast Guard Vessel Documentation Center.

Last reported at 2015-Mar-30 12:33 UTC. Time now 2015-Mar-30 12:57 UTC.
Position N 47°58' W 122°21'.

Length 100 m; draft 4.7 m.

Type: Passenger vessel. MMSI: 366772960.

Date/timePositionNaut miles runAvg speedWind from/ knotsBaromVisibWave heightAir tempDewpointWater temp
2015-Mar-30 12:33N 47°58' W 122°21'0 1.8
2015-Mar-30 12:26N 47°58' W 122°21'0 0.0
2015-Mar-30 11:31N 47°58' W 122°21'0 0.0
2015-Mar-30 09:20N 47°58' W 122°21'0 0.0
2015-Mar-30 08:55N 47°58' W 122°21'0 0.0
2015-Mar-30 08:30N 47°58' W 122°21'0 0.0
2015-Mar-30 08:22N 47°58' W 122°21'0 0.4
2015-Mar-30 07:33N 47°58' W 122°21'0 0.1
2015-Mar-30 07:11N 47°58' W 122°21'2 4.3
2015-Mar-30 06:44N 47°57' W 122°18'210.4
2015-Mar-30 06:33N 47°58' W 122°21'0 0.2
2015-Mar-30 05:33N 47°58' W 122°20'0 0.1
2015-Mar-30 04:33N 47°58' W 122°20'1 0.6
2015-Mar-30 03:39N 47°58' W 122°20'1 8.9
2015-Mar-30 03:33N 47°58' W 122°21'0 0.7
2015-Mar-30 03:14N 47°58' W 122°21'0 0.2
2015-Mar-30 02:32N 47°58' W 122°21'1 1.8
2015-Mar-30 02:10N 47°58' W 122°20'1 1.0
2015-Mar-30 01:33N 47°58' W 122°21'2 2.9
2015-Mar-30 00:49N 47°57' W 122°18'2 7.2
2015-Mar-30 00:33N 47°58' W 122°20'0 5.7
2015-Mar-30 00:29N 47°58' W 122°21'0 0.3
2015-Mar-29 23:33N 47°58' W 122°21'0 0.1
2015-Mar-29 23:10N 47°58' W 122°21'0 0.1
2015-Mar-29 22:33N 47°58' W 122°21'1 1.5
2015-Mar-29 21:39N 47°58' W 122°19'114.5
2015-Mar-29 21:33N 47°58' W 122°21'0 0.8
2015-Mar-29 21:09N 47°58' W 122°21'0 0.4
2015-Mar-29 20:33N 47°58' W 122°20'1 8.8
2015-Mar-29 20:30N 47°58' W 122°21'1 0.6
2015-Mar-29 19:33N 47°58' W 122°20'1 3.8
2015-Mar-29 19:24N 47°58' W 122°21'0 0.5
2015-Mar-29 18:33N 47°58' W 122°20'0 0.4
2015-Mar-29 18:09N 47°58' W 122°21'0 0.2
2015-Mar-29 17:33N 47°58' W 122°21'0 0.1
2015-Mar-29 16:33N 47°58' W 122°21'0 0.5
2015-Mar-29 16:13N 47°58' W 122°21'0 0.5
2015-Mar-29 15:33N 47°58' W 122°20'0 1.1
2015-Mar-29 15:13N 47°58' W 122°21'0 0.6
2015-Mar-29 14:33N 47°58' W 122°20'0 0.0
2015-Mar-29 13:33N 47°58' W 122°20'0 0.9
2015-Mar-29 13:14N 47°58' W 122°21'0 0.2
2015-Mar-29 12:33N 47°58' W 122°21'0 3.6
2015-Mar-29 12:33N 47°58' W 122°21'0 0.2
2015-Mar-29 11:30N 47°58' W 122°21'0 0.0
2015-Mar-29 10:33N 47°58' W 122°21'0 0.0
2015-Mar-29 09:33N 47°58' W 122°21'0 0.0
2015-Mar-29 09:12N 47°58' W 122°21'0 0.0
2015-Mar-29 08:33N 47°58' W 122°21'1 2.1
2015-Mar-29 08:16N 47°58' W 122°20'0 0.4
2015-Mar-29 07:33N 47°58' W 122°21'0 4.5
2015-Mar-29 07:32N 47°58' W 122°21'0 0.2
2015-Mar-29 06:33N 47°58' W 122°20'0 0.6
2015-Mar-29 06:12N 47°58' W 122°21'212.1
2015-Mar-29 06:02N 47°57' W 122°18'2 4.6
2015-Mar-29 05:33N 47°58' W 122°21'0 0.5
2015-Mar-29 04:33N 47°58' W 122°20'0 0.7
2015-Mar-29 04:12N 47°58' W 122°21'0 0.2
2015-Mar-29 03:33N 47°58' W 122°21'0 8.7
2015-Mar-29 03:31N 47°58' W 122°21'0 0.3
2015-Mar-29 02:33N 47°58' W 122°20'1 1.1
2015-Mar-29 01:41N 47°58' W 122°19'110.1
2015-Mar-29 01:33N 47°58' W 122°21'0 0.6
2015-Mar-29 01:17N 47°58' W 122°21'0 0.2
2015-Mar-29 00:33N 47°58' W 122°21'0 0.5
2015-Mar-29 00:16N 47°58' W 122°21'0 0.2
2015-Mar-28 23:33N 47°58' W 122°21'2 2.3
2015-Mar-28 22:41N 47°57' W 122°19'213.5
2015-Mar-28 22:33N 47°58' W 122°21'0 5.5
2015-Mar-28 22:31N 47°58' W 122°21'0 0.1
2015-Mar-28 21:33N 47°58' W 122°21'0 0.5
2015-Mar-28 21:11N 47°58' W 122°21'0 0.4
2015-Mar-28 20:33N 47°58' W 122°20'1 1.9
2015-Mar-28 20:16N 47°58' W 122°21'0 0.6
2015-Mar-28 19:33N 47°58' W 122°20'0 0.1
2015-Mar-28 18:33N 47°58' W 122°21'0 0.6
2015-Mar-28 18:10N 47°58' W 122°20'0 0.5
2015-Mar-28 17:33N 47°58' W 122°21'0 0.6
2015-Mar-28 17:14N 47°58' W 122°21'0 0.6
2015-Mar-28 16:33N 47°58' W 122°20'0 1.7
2015-Mar-28 16:18N 47°58' W 122°21'0 0.0
2015-Mar-28 15:31N 47°58' W 122°21'2 4.6
2015-Mar-28 15:03N 47°57' W 122°19'2 3.2
2015-Mar-28 14:33N 47°58' W 122°20'015.7
2015-Mar-28 14:32N 47°58' W 122°21'0 0.1
2015-Mar-28 13:33N 47°58' W 122°21'1 2.0
2015-Mar-28 13:05N 47°58' W 122°20'1 1.6
2015-Mar-28 12:32N 47°58' W 122°21'0 8.3
2015-Mar-28 12:30N 47°58' W 122°21'0 0.0
2015-Mar-28 11:33N 47°58' W 122°21'0 0.0
2015-Mar-28 10:35N 47°58' W 122°21'0 0.1
2015-Mar-28 10:32N 47°58' W 122°21'0 0.0
2015-Mar-28 09:59N 47°58' W 122°21'0 0.0
2015-Mar-28 09:30N 47°58' W 122°21'0 0.1
2015-Mar-28 08:16N 47°58' W 122°21'0 3.6
2015-Mar-28 08:15N 47°58' W 122°21'1 0.9
2015-Mar-28 07:34N 47°58' W 122°20'110.5
2015-Mar-28 07:29N 47°58' W 122°21'1 0.7
2015-Mar-28 06:33N 47°58' W 122°20'0 0.7
2015-Mar-28 06:09N 47°58' W 122°21'0 0.3
2015-Mar-28 05:33N 47°58' W 122°20'0 0.1
2015-Mar-28 04:33N 47°58' W 122°20'0 3.9
2015-Mar-28 04:33N 47°58' W 122°20'0 0.0
2015-Mar-28 03:33N 47°58' W 122°20'0 1.0
2015-Mar-28 03:12N 47°58' W 122°21'0 0.4
2015-Mar-28 02:33N 47°58' W 122°21'0 0.0
2015-Mar-28 02:32N 47°58' W 122°21'0 0.3
2015-Mar-28 01:33N 47°58' W 122°21'1 2.5
2015-Mar-28 01:16N 47°58' W 122°20'1 0.9
2015-Mar-28 00:33N 47°58' W 122°21'1 3.2
2015-Mar-28 00:12N 47°57' W 122°20'1 1.6
2015-Mar-27 23:33N 47°58' W 122°21'0 5.4
2015-Mar-27 23:32N 47°58' W 122°21'0 0.1
2015-Mar-27 22:33N 47°58' W 122°21'0 0.2
2015-Mar-27 22:22N 47°58' W 122°21'0 0.6
2015-Mar-27 21:33N 47°58' W 122°20'0 0.1
2015-Mar-27 20:33N 47°58' W 122°20'0 0.0
2015-Mar-27 19:33N 47°58' W 122°21'2 3.4
2015-Mar-27 18:58N 47°57' W 122°18'2 4.6
2015-Mar-27 18:33N 47°58' W 122°20'0 1.5
2015-Mar-27 18:18N 47°58' W 122°21'0 0.6
2015-Mar-27 17:33N 47°58' W 122°20'0 3.4
2015-Mar-27 17:25N 47°58' W 122°21'0 0.2
2015-Mar-27 16:33N 47°58' W 122°21'1 0.8
2015-Mar-27 15:35N 47°58' W 122°20'116.7
2015-Mar-27 15:33N 47°58' W 122°21'0 2.5
2015-Mar-27 15:24N 47°58' W 122°21'0 0.5
2015-Mar-27 14:33N 47°58' W 122°20'0 7.2
2015-Mar-27 14:30N 47°58' W 122°21'0 0.3
2015-Mar-27 13:33N 47°58' W 122°21'0 5.4
2015-Mar-27 13:30N 47°58' W 122°21'0 0.3
2015-Mar-27 12:33N 47°58' W 122°21'0 4.5
2015-Mar-27 12:29N 47°58' W 122°21'0 0.1
2015-Mar-27 11:32N 47°59' W 122°21'0 0.0
2015-Mar-27 11:10N 47°59' W 122°21'0 0.0
2015-Mar-27 10:27N 47°59' W 122°21'0 0.0
2015-Mar-27 10:25N 47°59' W 122°21'0 0.0
2015-Mar-27 09:23N 47°59' W 122°21'0 0.0
2015-Mar-27 09:04N 47°59' W 122°21'0 0.1
2015-Mar-27 08:30N 47°59' W 122°21'0 0.0
2015-Mar-27 08:29N 47°59' W 122°21'0 0.0
2015-Mar-27 07:30N 47°59' W 122°21'0 0.0
2015-Mar-27 07:29N 47°59' W 122°21'0 0.0
2015-Mar-27 06:11N 47°59' W 122°21'0 0.1
2015-Mar-27 05:33N 47°59' W 122°21'0 0.0
2015-Mar-27 04:24N 47°59' W 122°21'2 5.9
2015-Mar-27 03:59N 47°57' W 122°18'2 4.5
2015-Mar-27 03:33N 47°58' W 122°21'2 3.6
2015-Mar-27 02:59N 47°57' W 122°18'2 4.4
2015-Mar-27 02:33N 47°58' W 122°20'0 1.2
2015-Mar-27 02:09N 47°58' W 122°20'1 1.1
2015-Mar-27 01:33N 47°58' W 122°21'2 3.2
2015-Mar-27 00:54N 47°57' W 122°18'2 6.8
2015-Mar-27 00:33N 47°58' W 122°21'2 4.7
2015-Mar-27 00:09N 47°57' W 122°20'2 3.0
2015-Mar-26 23:33N 47°58' W 122°21'0 0.4
2015-Mar-26 23:19N 47°58' W 122°21'0 0.3
2015-Mar-26 22:33N 47°58' W 122°21'0 0.5
2015-Mar-26 22:14N 47°58' W 122°21'0 0.4
2015-Mar-26 21:33N 47°58' W 122°21'1 2.6
2015-Mar-26 21:08N 47°57' W 122°20'1 1.6
2015-Mar-26 20:34N 47°58' W 122°21'0 0.9
2015-Mar-26 20:13N 47°58' W 122°21'0 0.2
2015-Mar-26 19:33N 47°58' W 122°21'1 1.0
2015-Mar-26 18:36N 47°58' W 122°20'114.1
2015-Mar-26 18:33N 47°58' W 122°21'0 0.4
2015-Mar-26 17:32N 47°58' W 122°21'0 0.0
2015-Mar-26 17:23N 47°58' W 122°21'0 0.3
2015-Mar-26 16:32N 47°58' W 122°21'0 0.0
2015-Mar-26 15:32N 47°58' W 122°21'0 6.9
2015-Mar-26 15:31N 47°58' W 122°21'0 0.4
2015-Mar-26 14:34N 47°58' W 122°20'010.0
2015-Mar-26 14:31N 47°58' W 122°21'0 0.4
2015-Mar-26 13:33N 47°58' W 122°20'1 1.4
2015-Mar-26 12:40N 47°58' W 122°19'111.5
2015-Mar-26 12:33N 47°58' W 122°20'0 0.4
2015-Mar-26 11:33N 47°58' W 122°21'0 0.0
2015-Mar-26 10:34N 47°58' W 122°21'0 0.0
2015-Mar-26 09:27N 47°58' W 122°21'0 0.0
2015-Mar-26 08:30N 47°58' W 122°21'0 0.6
2015-Mar-26 08:14N 47°58' W 122°21'0 0.3
2015-Mar-26 07:33N 47°58' W 122°21'0 0.3
2015-Mar-26 07:09N 47°58' W 122°21'0 0.3
2015-Mar-26 06:33N 47°58' W 122°21'1 2.5
2015-Mar-26 06:04N 47°57' W 122°19'1 2.4
2015-Mar-26 05:33N 47°58' W 122°21'0 0.1
2015-Mar-26 04:34N 47°58' W 122°20'0 0.4
2015-Mar-26 03:35N 47°58' W 122°20'011.3
2015-Mar-26 03:33N 47°58' W 122°20'0 0.3
2015-Mar-26 03:09N 47°58' W 122°21'0 0.3
2015-Mar-26 02:33N 47°58' W 122°21'0 0.7
2015-Mar-26 02:14N 47°58' W 122°21'0 0.4
2015-Mar-26 01:33N 47°58' W 122°21'0 0.1
2015-Mar-26 00:33N 47°58' W 122°20'1 1.4
2015-Mar-25 23:39N 47°58' W 122°19'113.2
2015-Mar-25 23:33N 47°58' W 122°20'1 2.7
2015-Mar-25 23:04N 47°57' W 122°19'1 2.9
2015-Mar-25 22:33N 47°58' W 122°21'2 3.9
2015-Mar-25 22:04N 47°57' W 122°19'2 3.9
2015-Mar-25 21:33N 47°58' W 122°21'0 0.3
2015-Mar-25 20:34N 47°58' W 122°20'0 0.2
2015-Mar-25 19:32N 47°58' W 122°21'0 0.2
2015-Mar-25 18:33N 47°58' W 122°20'0 0.0
2015-Mar-25 17:33N 47°58' W 122°21'0 0.2
2015-Mar-25 16:33N 47°58' W 122°20'0 0.1
2015-Mar-25 15:33N 47°58' W 122°20'0 0.2
2015-Mar-25 14:33N 47°58' W 122°21'0 0.1
2015-Mar-25 13:33N 47°58' W 122°21'0 0.2
2015-Mar-25 13:11N 47°58' W 122°21'0 0.2
2015-Mar-25 12:33N 47°58' W 122°21'0 0.5
2015-Mar-25 12:16N 47°58' W 122°21'0 0.5
2015-Mar-25 11:33N 47°59' W 122°21'0 0.0
2015-Mar-25 10:18N 47°59' W 122°21'0 0.0
2015-Mar-25 07:17N 47°59' W 122°21'0 0.0
2015-Mar-25 07:10N 47°59' W 122°21'0 0.0
2015-Mar-25 06:23N 47°59' W 122°21'0 0.0
2015-Mar-25 05:24N 47°59' W 122°21'1 0.8
2015-Mar-25 04:33N 47°59' W 122°20'2 2.2
2015-Mar-25 03:40N 47°57' W 122°19'112.9
2015-Mar-25 03:33N 47°58' W 122°20'0 0.5
2015-Mar-25 02:34N 47°58' W 122°20'018.8
2015-Mar-25 02:33N 47°58' W 122°20'0 0.3
2015-Mar-25 01:33N 47°58' W 122°21'0 1.9
2015-Mar-25 01:25N 47°58' W 122°21'0 0.0
2015-Mar-25 00:33N 47°58' W 122°21'0 0.5
2015-Mar-25 00:15N 47°58' W 122°21'0 0.1
2015-Mar-24 23:33N 47°58' W 122°21'0 0.5
2015-Mar-24 23:15N 47°58' W 122°21'0 0.1
2015-Mar-24 22:34N 47°58' W 122°21'0 0.1
2015-Mar-24 21:33N 47°58' W 122°21'0 0.5
2015-Mar-24 21:09N 47°58' W 122°21'0 0.5
2015-Mar-24 20:33N 47°58' W 122°20'0 0.2
2015-Mar-24 19:35N 47°58' W 122°20'117.0
2015-Mar-24 19:33N 47°58' W 122°21'0 0.5
2015-Mar-24 19:09N 47°58' W 122°21'0 0.2
2015-Mar-24 18:33N 47°58' W 122°21'2 3.4
2015-Mar-24 17:59N 47°57' W 122°18'2 4.0
2015-Mar-24 17:33N 47°58' W 122°20'1 1.7
2015-Mar-24 17:14N 47°58' W 122°21'0 0.6
2015-Mar-24 16:33N 47°58' W 122°20'2 3.2
2015-Mar-24 15:59N 47°57' W 122°18'2 4.8
2015-Mar-24 15:33N 47°58' W 122°21'0 1.5
2015-Mar-24 15:24N 47°58' W 122°21'0 0.5
2015-Mar-24 14:33N 47°58' W 122°20'0 1.0
2015-Mar-24 14:13N 47°58' W 122°21'0 0.1
2015-Mar-24 13:32N 47°58' W 122°21'0 0.4
2015-Mar-24 13:14N 47°58' W 122°21'0 0.6
2015-Mar-24 12:33N 47°58' W 122°21'2 3.2
2015-Mar-24 11:58N 47°57' W 122°18'2 5.7
2015-Mar-24 11:33N 47°59' W 122°21'0 0.0
2015-Mar-24 11:28N 47°59' W 122°21'0 0.0
2015-Mar-24 10:05N 47°59' W 122°21'0 0.0
2015-Mar-24 09:15N 47°59' W 122°21'0 0.0
2015-Mar-24 07:56N 47°59' W 122°21'0 0.0
2015-Mar-24 07:08N 47°59' W 122°21'0 0.0
2015-Mar-24 06:33N 47°59' W 122°21'0 0.0
2015-Mar-24 06:20N 47°59' W 122°21'0 0.0
2015-Mar-24 05:33N 47°59' W 122°21'0 0.0
2015-Mar-24 04:26N 47°59' W 122°21'1 0.8
2015-Mar-24 03:35N 47°58' W 122°20'010.7
2015-Mar-24 03:33N 47°58' W 122°21'1 0.9
2015-Mar-24 02:35N 47°58' W 122°20'116.5
2015-Mar-24 02:33N 47°58' W 122°20'0 0.2
2015-Mar-24 01:33N 47°58' W 122°21'0 0.3
2015-Mar-24 01:11N 47°58' W 122°21'0 0.1
2015-Mar-24 00:33N 47°58' W 122°21'1 1.9
2015-Mar-24 00:06N 47°58' W 122°20'1 1.5
2015-Mar-23 23:33N 47°58' W 122°21'0 2.5
2015-Mar-23 23:25N 47°58' W 122°21'0 0.4
2015-Mar-23 22:33N 47°58' W 122°21'0 0.0
2015-Mar-23 21:33N 47°58' W 122°21'0 0.4
2015-Mar-23 21:10N 47°58' W 122°21'0 0.6
2015-Mar-23 20:33N 47°58' W 122°21'0 0.8
2015-Mar-23 20:09N 47°58' W 122°21'0 0.3
2015-Mar-23 19:33N 47°58' W 122°21'0 0.7
2015-Mar-23 19:14N 47°58' W 122°21'0 0.2
2015-Mar-23 18:33N 47°58' W 122°20'0 0.0
2015-Mar-23 17:34N 47°58' W 122°20'0 0.4
2015-Mar-23 17:09N 47°58' W 122°21'0 0.7
2015-Mar-23 16:33N 47°58' W 122°21'0 0.2
2015-Mar-23 15:34N 47°58' W 122°21'2 1.7
2015-Mar-23 14:38N 47°57' W 122°19'116.8
2015-Mar-23 14:33N 47°58' W 122°21'0 2.1
2015-Mar-23 14:23N 47°58' W 122°21'0 0.6
2015-Mar-23 13:33N 47°58' W 122°20'0 2.0
2015-Mar-23 13:18N 47°58' W 122°21'0 0.5
2015-Mar-23 12:33N 47°58' W 122°21'0 0.2
2015-Mar-23 11:43N 47°58' W 122°20'0 2.9
2015-Mar-23 11:33N 47°58' W 122°21'0 0.0
2015-Mar-23 09:08N 47°58' W 122°21'0 0.0
2015-Mar-23 08:33N 47°58' W 122°21'0 0.4
2015-Mar-23 08:17N 47°58' W 122°21'0 0.6
2015-Mar-23 07:33N 47°58' W 122°20'010.1
2015-Mar-23 07:33N 47°58' W 122°21'0 0.1
2015-Mar-23 06:33N 47°58' W 122°21'2 3.0
2015-Mar-23 05:51N 47°57' W 122°18'2 6.2
2015-Mar-23 05:33N 47°58' W 122°20'0 0.2
2015-Mar-23 04:33N 47°58' W 122°21'2 2.9
2015-Mar-23 03:51N 47°57' W 122°18'2 6.9
2015-Mar-23 03:33N 47°58' W 122°21'0 0.3
2015-Mar-23 03:11N 47°58' W 122°21'0 0.3
2015-Mar-23 02:33N 47°58' W 122°21'1 0.7
2015-Mar-23 01:36N 47°58' W 122°20'112.0
2015-Mar-23 01:33N 47°58' W 122°21'0 0.7
2015-Mar-23 01:16N 47°58' W 122°21'0 0.4
2015-Mar-23 00:33N 47°58' W 122°21'0 7.5
2015-Mar-23 00:31N 47°58' W 122°21'0 0.0
2015-Mar-22 23:32N 47°58' W 122°21'2 2.8
2015-Mar-22 22:45N 47°57' W 122°18'2 8.5
2015-Mar-22 22:33N 47°58' W 122°20'0 0.1
2015-Mar-22 21:33N 47°58' W 122°21'0 0.3
2015-Mar-22 20:33N 47°58' W 122°21'2 4.0
2015-Mar-22 20:10N 47°57' W 122°19'2 2.6
2015-Mar-22 19:33N 47°58' W 122°21'1 5.5
2015-Mar-22 19:21N 47°58' W 122°20'1 1.1
2015-Mar-22 18:33N 47°58' W 122°21'0 0.1
2015-Mar-22 17:33N 47°58' W 122°21'2 3.8
2015-Mar-22 17:00N 47°57' W 122°18'2 4.3
2015-Mar-22 16:33N 47°58' W 122°20'0 0.0
2015-Mar-22 15:33N 47°58' W 122°21'0 0.0
2015-Mar-22 14:33N 47°58' W 122°21'0 0.0
2015-Mar-22 13:33N 47°58' W 122°21'0 0.2
2015-Mar-22 12:33N 47°58' W 122°20'1 0.4
2015-Mar-22 11:07N 47°58' W 122°21'0 0.0
2015-Mar-22 10:59N 47°58' W 122°21'0 0.0
2015-Mar-22 09:33N 47°58' W 122°21'0 0.0
2015-Mar-22 08:32N 47°58' W 122°21'0 0.5
2015-Mar-22 07:33N 47°58' W 122°20'0 0.1
2015-Mar-22 06:33N 47°58' W 122°21'0 0.2
2015-Mar-22 05:32N 47°58' W 122°21'0 0.3
2015-Mar-22 04:33N 47°58' W 122°20'0 0.3
2015-Mar-22 03:33N 47°58' W 122°21'0 0.0
2015-Mar-22 03:33N 47°58' W 122°21'1 1.6
2015-Mar-22 03:13N 47°58' W 122°20'0 0.7
2015-Mar-22 02:33N 47°58' W 122°21'0 0.3
2015-Mar-22 01:33N 47°58' W 122°20'0 0.1
2015-Mar-22 00:33N 47°58' W 122°21'0 0.6
2015-Mar-22 00:12N 47°58' W 122°21'0 0.7
2015-Mar-21 23:33N 47°58' W 122°20'0 1.0
2015-Mar-21 23:12N 47°58' W 122°21'0 0.1
2015-Mar-21 22:33N 47°58' W 122°21'1 1.5
2015-Mar-21 22:11N 47°58' W 122°20'1 0.8
2015-Mar-21 21:33N 47°58' W 122°21'2 3.5
2015-Mar-21 20:56N 47°57' W 122°18'2 5.6
2015-Mar-21 20:33N 47°58' W 122°21'0 0.5
2015-Mar-21 20:11N 47°58' W 122°21'0 0.1
2015-Mar-21 19:33N 47°58' W 122°21'010.2
2015-Mar-21 19:32N 47°58' W 122°21'0 0.1
2015-Mar-21 18:33N 47°58' W 122°21'0 5.8
2015-Mar-21 18:31N 47°58' W 122°21'0 0.0
2015-Mar-21 17:33N 47°58' W 122°21'1 2.2
2015-Mar-21 17:15N 47°58' W 122°20'1 1.0
2015-Mar-21 16:33N 47°58' W 122°21'1 2.1
2015-Mar-21 16:11N 47°58' W 122°20'1 0.9
2015-Mar-21 15:33N 47°58' W 122°21'0 0.0
2015-Mar-21 14:33N 47°58' W 122°21'0 0.4
2015-Mar-21 14:10N 47°58' W 122°21'0 0.2
2015-Mar-21 13:33N 47°58' W 122°21'0 0.3
2015-Mar-21 13:10N 47°58' W 122°21'0 0.7
2015-Mar-21 12:33N 47°58' W 122°20'110.9
2015-Mar-21 12:30N 47°58' W 122°21'0 0.0
2015-Mar-21 11:33N 47°58' W 122°21'0 0.0
2015-Mar-21 10:25N 47°58' W 122°21'0 0.0
2015-Mar-21 09:33N 47°58' W 122°21'0 0.0
2015-Mar-21 08:33N 47°58' W 122°21'0 1.2
2015-Mar-21 08:13N 47°58' W 122°21'0 0.4
2015-Mar-21 07:33N 47°58' W 122°20'013.2
2015-Mar-21 07:32N 47°58' W 122°20'0 0.1
2015-Mar-21 06:33N 47°58' W 122°20'0 0.3
2015-Mar-21 05:33N 47°58' W 122°21'0 0.2
2015-Mar-21 04:33N 47°58' W 122°20'012.9
2015-Mar-21 04:31N 47°58' W 122°21'0 0.3
2015-Mar-21 03:33N 47°58' W 122°20'0 0.2
2015-Mar-21 02:33N 47°58' W 122°21'0 0.1
2015-Mar-21 01:33N 47°58' W 122°21'0 0.3
2015-Mar-21 00:33N 47°58' W 122°21'1 1.0
2015-Mar-20 23:40N 47°58' W 122°20'1 7.1
2015-Mar-20 23:33N 47°58' W 122°21'0 0.5
2015-Mar-20 22:33N 47°58' W 122°20'0 0.4
2015-Mar-20 21:33N 47°58' W 122°21'0 0.4
2015-Mar-20 20:34N 47°58' W 122°20'014.0
2015-Mar-20 20:33N 47°58' W 122°21'0 0.1
2015-Mar-20 19:33N 47°58' W 122°21'1 2.6
2015-Mar-20 19:09N 47°57' W 122°20'1 1.4
2015-Mar-20 18:33N 47°58' W 122°20'1 1.8
2015-Mar-20 18:09N 47°57' W 122°20'1 1.6
2015-Mar-20 17:33N 47°58' W 122°21'0 0.2
2015-Mar-20 16:32N 47°58' W 122°21'0 0.5
2015-Mar-20 15:33N 47°58' W 122°20'0 0.3
2015-Mar-20 14:33N 47°58' W 122°21'0 0.2
2015-Mar-20 13:34N 47°58' W 122°20'014.9
2015-Mar-20 13:34N 47°58' W 122°21'0 0.1
2015-Mar-20 12:33N 47°58' W 122°21'  

Dump ship's entire track history